Time;durP1;ratioP1;P1;durP2;ratioP2;P2;SDS_P1;SDS_P2;PMS_P1;PMS_P2;Temp;Humidity;BMP_temperature;BMP_pressure;BME280_temperature;BME280_humidity;BME280_pressure;Samples;Min_cycle;Max_cycle;Signal;HPM_P1;HPM_P2
2023/07/06 00:01:47;;;;;;;6.43;2.87;;;12.50;99.90;;;;;;5002332;28;20640;-84
2023/07/06 00:04:15;;;;;;;4.63;2.63;;;12.50;99.90;;;;;;5020034;28;20294;-84
2023/07/06 00:06:42;;;;;;;4.30;2.60;;;12.50;99.90;;;;;;5019189;28;20749;-84
2023/07/06 00:09:10;;;;;;;6.43;2.87;;;12.50;99.90;;;;;;5020764;28;20276;-85
2023/07/06 00:11:39;;;;;;;4.67;3.30;;;12.50;99.90;;;;;;5006955;28;20309;-83
2023/07/06 00:14:11;;;;;;;5.57;2.90;;;12.50;99.90;;;;;;5008049;28;21129;-84
2023/07/06 00:16:41;;;;;;;6.60;3.07;;;12.50;99.90;;;;;;5006493;28;20256;-84
2023/07/06 00:19:08;;;;;;;6.77;3.27;;;12.40;99.90;;;;;;5006551;28;20214;-83
2023/07/06 00:21:35;;;;;;;5.30;2.60;;;12.40;99.90;;;;;;5019143;28;20762;-84
2023/07/06 00:24:02;;;;;;;8.17;3.17;;;12.40;99.90;;;;;;5022792;28;20248;-83
2023/07/06 00:26:29;;;;;;;6.53;3.10;;;12.40;99.90;;;;;;5008987;28;20308;-83
2023/07/06 00:28:58;;;;;;;6.60;2.73;;;12.30;99.90;;;;;;5008484;28;20242;-83
2023/07/06 00:31:33;;;;;;;4.50;2.80;;;12.30;99.90;;;;;;5004360;28;20310;-84
2023/07/06 00:34:04;;;;;;;5.73;2.70;;;12.30;99.90;;;;;;5007562;28;20212;-84
2023/07/06 00:36:31;;;;;;;5.03;3.00;;;12.30;99.90;;;;;;5005921;28;20296;-83
2023/07/06 00:39:01;;;;;;;7.87;3.47;;;12.20;99.90;;;;;;5022160;28;20251;-83
2023/07/06 00:41:28;;;;;;;4.83;3.00;;;12.20;99.90;;;;;;5007038;28;20233;-83
2023/07/06 00:43:56;;;;;;;9.13;3.20;;;12.20;99.90;;;;;;5008113;28;20229;-83
2023/07/06 00:46:29;;;;;;;7.20;3.30;;;12.10;99.90;;;;;;4999719;28;21284;-84
2023/07/06 00:48:58;;;;;;;5.93;2.70;;;12.10;99.90;;;;;;5001726;28;20222;-83
2023/07/06 00:51:28;;;;;;;5.67;2.93;;;12.10;99.90;;;;;;5015831;28;20221;-85
2023/07/06 00:53:57;;;;;;;4.33;2.60;;;12.10;99.90;;;;;;5001576;28;20246;-86
2023/07/06 00:56:27;;;;;;;6.27;2.90;;;12.00;99.90;;;;;;5001764;28;20263;-83
2023/07/06 00:59:02;;;;;;;6.40;3.00;;;12.00;99.90;;;;;;5002587;28;20235;-83
2023/07/06 01:01:32;;;;;;;6.27;2.67;;;12.00;99.90;;;;;;5006770;28;20305;-84
2023/07/06 01:04:01;;;;;;;6.10;3.13;;;12.00;99.90;;;;;;5003686;28;20330;-83
2023/07/06 01:06:32;;;;;;;7.13;3.20;;;12.00;99.90;;;;;;5000405;28;20723;-84
2023/07/06 01:08:59;;;;;;;7.50;3.10;;;11.90;99.90;;;;;;5003503;28;20211;-84
2023/07/06 01:11:28;;;;;;;5.53;2.80;;;11.90;99.90;;;;;;5002231;28;20224;-83
2023/07/06 01:13:55;;;;;;;5.80;3.00;;;11.90;99.90;;;;;;5002664;28;20232;-84
2023/07/06 01:16:33;;;;;;;5.73;2.73;;;11.90;99.90;;;;;;5001775;28;20224;-84
2023/07/06 01:19:13;;;;;;;5.97;3.00;;;11.90;99.90;;;;;;5017483;28;20304;-84
2023/07/06 01:21:46;;;;;;;6.83;3.20;;;11.90;99.90;;;;;;5001881;28;20231;-84
2023/07/06 01:24:32;;;;;;;5.63;3.10;;;11.90;99.90;;;;;;5017366;28;20740;-84
2023/07/06 01:27:27;;;;;;;6.77;3.47;;;11.80;99.90;;;;;;5019210;28;20233;-84
2023/07/06 01:30:24;;;;;;;5.57;2.93;;;11.80;99.90;;;;;;5017693;28;20227;-85
2023/07/06 01:32:58;;;;;;;5.27;3.00;;;11.80;99.90;;;;;;5004439;28;20229;-85
2023/07/06 01:35:29;;;;;;;5.37;3.20;;;11.80;99.90;;;;;;5021373;28;20235;-84
2023/07/06 01:37:57;;;;;;;5.77;3.20;;;11.80;99.90;;;;;;5002836;28;20848;-85
2023/07/06 01:40:24;;;;;;;6.93;2.80;;;11.70;99.90;;;;;;5005047;28;20237;-84
2023/07/06 01:42:51;;;;;;;7.57;3.43;;;11.80;99.90;;;;;;5020325;28;20924;-85
2023/07/06 01:45:21;;;;;;;9.00;2.97;;;11.70;99.90;;;;;;5017606;28;20584;-84
2023/07/06 01:47:51;;;;;;;5.57;3.03;;;11.70;99.90;;;;;;5004107;28;20300;-84
2023/07/06 01:50:23;;;;;;;6.47;3.20;;;11.70;99.90;;;;;;5015367;28;20227;-84
2023/07/06 01:53:04;;;;;;;6.07;2.80;;;11.60;99.90;;;;;;5002278;28;20661;-83
2023/07/06 01:55:38;;;;;;;6.87;3.73;;;11.60;99.90;;;;;;5003273;28;20236;-84
2023/07/06 01:58:12;;;;;;;8.50;3.30;;;11.60;99.90;;;;;;5000250;28;20247;-85
2023/07/06 02:00:42;;;;;;;6.87;3.50;;;11.60;99.90;;;;;;5004163;28;20332;-84
2023/07/06 02:03:10;;;;;;;9.30;3.40;;;11.60;99.90;;;;;;5002932;28;20222;-83
2023/07/06 02:05:41;;;;;;;7.00;3.30;;;11.50;99.90;;;;;;5003077;28;20321;-85
2023/07/06 02:08:10;;;;;;;5.70;3.03;;;11.60;99.90;;;;;;5003727;28;20227;-84
2023/07/06 02:10:36;;;;;;;4.27;3.10;;;11.50;99.90;;;;;;5005142;28;20225;-84
2023/07/06 02:13:03;;;;;;;5.83;3.50;;;11.50;99.90;;;;;;5003980;28;20860;-83
2023/07/06 02:15:31;;;;;;;4.67;3.30;;;11.50;99.90;;;;;;5001385;28;20229;-84
2023/07/06 02:17:57;;;;;;;8.23;3.37;;;11.50;99.90;;;;;;5020766;28;20228;-84
2023/07/06 02:20:24;;;;;;;7.37;3.40;;;11.50;99.90;;;;;;5005201;28;20692;-83
2023/07/06 02:22:52;;;;;;;5.73;3.47;;;11.40;99.90;;;;;;5019748;28;20220;-82
2023/07/06 02:25:20;;;;;;;5.20;3.60;;;11.40;99.90;;;;;;5004660;28;20233;-83
2023/07/06 02:27:48;;;;;;;6.00;3.50;;;11.40;99.90;;;;;;5021214;28;20735;-83
2023/07/06 02:30:16;;;;;;;9.53;3.67;;;11.40;99.90;;;;;;5005564;28;20221;-83
2023/07/06 02:32:43;;;;;;;6.47;3.47;;;11.30;99.90;;;;;;5019907;28;20235;-84
2023/07/06 02:35:10;;;;;;;5.00;3.20;;;11.30;99.90;;;;;;5007576;28;20305;-84
2023/07/06 02:37:38;;;;;;;5.60;3.97;;;11.20;99.90;;;;;;5004881;28;20722;-83
2023/07/06 02:40:09;;;;;;;7.83;3.67;;;11.20;99.90;;;;;;5020839;28;20264;-82
2023/07/06 02:42:36;;;;;;;8.10;3.63;;;11.10;99.90;;;;;;5008695;28;20227;-82
2023/07/06 02:45:05;;;;;;;7.90;3.37;;;11.10;99.90;;;;;;5022812;28;20222;-81
2023/07/06 02:47:32;;;;;;;7.10;3.43;;;11.10;99.90;;;;;;5005994;28;20253;-81
2023/07/06 02:49:58;;;;;;;6.47;3.90;;;11.10;99.90;;;;;;5022382;28;20225;-81
2023/07/06 02:52:25;;;;;;;6.23;3.40;;;11.10;99.90;;;;;;5002807;28;20306;-83
2023/07/06 02:54:53;;;;;;;6.40;3.60;;;11.10;99.90;;;;;;5019029;28;20828;-83
2023/07/06 02:57:21;;;;;;;6.90;3.47;;;11.00;99.90;;;;;;5018855;28;20267;-83
2023/07/06 02:59:48;;;;;;;4.93;3.70;;;11.10;99.90;;;;;;4997810;28;20230;-83
2023/07/06 03:02:15;;;;;;;7.63;3.40;;;11.00;99.90;;;;;;5019322;28;20225;-84
2023/07/06 03:04:42;;;;;;;8.83;4.30;;;11.00;99.90;;;;;;5002230;28;20229;-84
2023/07/06 03:07:09;;;;;;;7.57;3.80;;;11.00;99.90;;;;;;5001642;28;20301;-83
2023/07/06 03:09:36;;;;;;;6.77;4.10;;;11.00;99.90;;;;;;5020951;28;20235;-84
2023/07/06 03:12:05;;;;;;;8.43;4.03;;;11.00;99.90;;;;;;5005470;28;20475;-84
2023/07/06 03:14:33;;;;;;;6.30;3.50;;;11.00;99.90;;;;;;4999395;28;20234;-84
2023/07/06 03:17:00;;;;;;;7.70;3.87;;;11.00;99.90;;;;;;5018997;28;20724;-84
2023/07/06 03:19:27;;;;;;;6.80;3.87;;;11.00;99.90;;;;;;5019352;28;20251;-83
2023/07/06 03:21:58;;;;;;;9.50;3.90;;;11.00;99.90;;;;;;5019891;28;20241;-84
2023/07/06 03:24:27;;;;;;;8.70;3.73;;;11.00;99.90;;;;;;5015846;28;20235;-84
2023/07/06 03:26:54;;;;;;;8.30;4.20;;;11.00;99.90;;;;;;5013136;28;20600;-84
2023/07/06 03:29:21;;;;;;;6.57;4.37;;;11.00;99.90;;;;;;5016441;28;20240;-84
2023/07/06 03:31:49;;;;;;;5.80;4.30;;;11.00;99.90;;;;;;5001580;28;20228;-83
2023/07/06 03:34:16;;;;;;;8.83;4.50;;;11.00;99.90;;;;;;5018725;28;20249;-83
2023/07/06 03:36:43;;;;;;;7.57;4.03;;;10.90;99.90;;;;;;5022079;28;20312;-84
2023/07/06 03:39:12;;;;;;;9.77;4.70;;;10.90;99.90;;;;;;5006329;28;20227;-81
2023/07/06 03:41:39;;;;;;;7.87;4.40;;;10.90;99.90;;;;;;5004584;28;20919;-84
2023/07/06 03:44:06;;;;;;;9.63;4.73;;;10.90;99.90;;;;;;5022337;28;20214;-83
2023/07/06 03:46:34;;;;;;;8.23;4.63;;;11.00;99.90;;;;;;5003658;28;20823;-83
2023/07/06 03:49:04;;;;;;;6.03;4.37;;;11.00;99.90;;;;;;5006446;28;20228;-84
2023/07/06 03:51:31;;;;;;;9.13;4.30;;;11.00;99.90;;;;;;5003693;28;20304;-83
2023/07/06 03:53:58;;;;;;;7.20;4.67;;;11.00;99.90;;;;;;5024384;28;20227;-83
2023/07/06 03:56:28;;;;;;;8.10;5.13;;;11.00;99.90;;;;;;5025627;28;20245;-83
2023/07/06 03:58:57;;;;;;;7.80;4.83;;;11.00;99.90;;;;;;5008615;28;20845;-82
2023/07/06 04:01:24;;;;;;;7.40;5.00;;;11.10;99.90;;;;;;5008920;28;20229;-82
2023/07/06 04:03:52;;;;;;;8.30;5.50;;;11.10;99.90;;;;;;5003978;28;20225;-83
2023/07/06 04:06:22;;;;;;;8.83;4.60;;;11.10;99.90;;;;;;5022410;28;20233;-82
2023/07/06 04:08:49;;;;;;;13.23;5.03;;;11.10;99.90;;;;;;5004972;28;20231;-83
2023/07/06 04:11:16;;;;;;;9.47;5.17;;;11.20;99.90;;;;;;5022548;28;20227;-82
2023/07/06 04:13:42;;;;;;;7.43;5.07;;;11.20;99.90;;;;;;5021647;28;20257;-83
2023/07/06 04:16:15;;;;;;;9.47;5.60;;;11.30;99.90;;;;;;5009221;28;20225;-83
2023/07/06 04:18:44;;;;;;;7.83;5.20;;;11.30;99.90;;;;;;5025964;28;20229;-82
2023/07/06 04:21:11;;;;;;;8.73;5.53;;;11.40;99.90;;;;;;5006286;28;20220;-83
2023/07/06 04:23:39;;;;;;;10.67;6.00;;;11.50;99.90;;;;;;5006902;28;20246;-84
2023/07/06 04:26:06;;;;;;;9.27;5.63;;;11.60;99.90;;;;;;5021981;28;20221;-81
2023/07/06 04:28:32;;;;;;;9.17;5.83;;;11.60;99.90;;;;;;5006032;28;20225;-82
2023/07/06 04:30:59;;;;;;;7.90;5.43;;;11.60;99.90;;;;;;5007443;28;20249;-82
2023/07/06 04:33:26;;;;;;;11.77;5.60;;;11.70;99.90;;;;;;5023026;28;20250;-81
2023/07/06 04:35:53;;;;;;;9.13;6.43;;;11.70;99.90;;;;;;5006252;28;20224;-83
2023/07/06 04:38:21;;;;;;;8.37;5.50;;;11.80;99.90;;;;;;5004581;28;20564;-82
2023/07/06 04:40:52;;;;;;;9.53;5.50;;;11.80;99.90;;;;;;5005800;28;20928;-82
2023/07/06 04:43:19;;;;;;;8.43;5.70;;;11.80;99.90;;;;;;5003223;28;20218;-83
2023/07/06 04:45:46;;;;;;;8.73;5.63;;;11.80;99.90;;;;;;5007091;28;20224;-82
2023/07/06 04:48:16;;;;;;;10.20;6.17;;;11.90;99.90;;;;;;5007653;28;20215;-81
2023/07/06 04:50:43;;;;;;;10.43;5.87;;;11.90;99.90;;;;;;5005713;28;20345;-81
2023/07/06 04:53:10;;;;;;;9.37;6.37;;;12.00;99.90;;;;;;5021780;28;20698;-81
2023/07/06 04:55:37;;;;;;;10.53;6.20;;;12.00;99.90;;;;;;5005874;28;20319;-81
2023/07/06 04:58:06;;;;;;;7.73;5.80;;;12.00;99.90;;;;;;5006499;28;20280;-82
2023/07/06 05:00:37;;;;;;;7.07;5.37;;;12.10;99.90;;;;;;5021651;28;20241;-82
2023/07/06 05:03:07;;;;;;;9.83;6.03;;;12.10;99.90;;;;;;5007344;28;20233;-81
2023/07/06 05:05:38;;;;;;;9.30;5.60;;;12.10;99.90;;;;;;5006860;28;20230;-81
2023/07/06 05:08:06;;;;;;;7.93;5.63;;;12.20;99.90;;;;;;5004588;28;20851;-82
2023/07/06 05:10:34;;;;;;;8.47;5.27;;;12.20;99.90;;;;;;5018537;28;20259;-81
2023/07/06 05:13:01;;;;;;;9.63;5.40;;;12.30;99.90;;;;;;5005993;28;20807;-82
2023/07/06 05:15:29;;;;;;;9.67;5.37;;;12.30;99.90;;;;;;5004692;28;20223;-81
2023/07/06 05:17:56;;;;;;;9.43;5.40;;;12.40;99.90;;;;;;5003547;28;20921;-83
2023/07/06 05:20:24;;;;;;;7.57;4.50;;;12.40;99.90;;;;;;5001689;28;21762;-82
2023/07/06 05:22:52;;;;;;;7.87;5.20;;;12.50;99.90;;;;;;5020814;28;20228;-82
2023/07/06 05:25:20;;;;;;;10.60;5.17;;;12.50;99.90;;;;;;5005495;28;20218;-81
2023/07/06 05:27:47;;;;;;;8.03;5.10;;;12.50;99.90;;;;;;5008508;28;20239;-80
2023/07/06 05:30:14;;;;;;;7.03;5.07;;;12.60;99.90;;;;;;5008175;28;20215;-81
2023/07/06 05:32:42;;;;;;;6.33;4.83;;;12.70;99.90;;;;;;5009422;28;20263;-81
2023/07/06 05:35:10;;;;;;;10.37;5.30;;;12.70;99.90;;;;;;5007352;28;20228;-81
2023/07/06 05:37:37;;;;;;;9.27;5.10;;;12.80;99.90;;;;;;5010757;28;20711;-80
2023/07/06 05:40:06;;;;;;;6.40;5.30;;;12.80;99.90;;;;;;5023261;28;20248;-81
2023/07/06 05:42:33;;;;;;;8.10;5.43;;;12.90;99.90;;;;;;5023551;28;20277;-81
2023/07/06 05:45:00;;;;;;;7.40;4.90;;;12.90;99.90;;;;;;5008940;28;20294;-81
2023/07/06 05:47:27;;;;;;;9.37;4.90;;;13.00;99.90;;;;;;5008762;28;20228;-80
2023/07/06 05:49:56;;;;;;;9.30;4.80;;;13.00;99.90;;;;;;5006458;28;20232;-81
2023/07/06 05:52:23;;;;;;;8.73;5.23;;;13.10;99.90;;;;;;5008547;28;20245;-80
2023/07/06 05:54:50;;;;;;;8.87;4.63;;;13.10;99.90;;;;;;5007733;28;20905;-81
2023/07/06 05:57:19;;;;;;;10.33;4.67;;;13.10;99.90;;;;;;5007256;28;20310;-80
2023/07/06 05:59:48;;;;;;;8.23;4.90;;;13.20;99.90;;;;;;5006829;28;20250;-80
2023/07/06 06:02:17;;;;;;;9.23;4.70;;;13.30;99.90;;;;;;5005775;28;20241;-81
2023/07/06 06:04:44;;;;;;;6.50;4.37;;;13.40;99.90;;;;;;5023781;28;20874;-81
2023/07/06 06:07:12;;;;;;;6.83;4.63;;;13.40;99.90;;;;;;5005650;28;20307;-81
2023/07/06 06:09:39;;;;;;;6.53;4.40;;;13.40;99.90;;;;;;5013730;28;20248;-78
2023/07/06 06:12:07;;;;;;;6.83;4.60;;;13.50;99.90;;;;;;5009156;28;20323;-78
2023/07/06 06:14:34;;;;;;;9.67;4.73;;;13.60;99.90;;;;;;5023841;28;20382;-78
2023/07/06 06:17:01;;;;;;;8.20;4.10;;;13.60;99.90;;;;;;5008372;28;20232;-81
2023/07/06 06:19:31;;;;;;;8.17;4.17;;;13.70;99.90;;;;;;5010413;28;20234;-79
2023/07/06 06:21:59;;;;;;;8.97;4.50;;;13.80;99.90;;;;;;5010659;28;20231;-79
2023/07/06 06:24:29;;;;;;;9.37;4.63;;;13.90;99.90;;;;;;5010836;28;20274;-80
2023/07/06 06:26:55;;;;;;;11.40;4.43;;;14.10;99.90;;;;;;5009689;28;20779;-79
2023/07/06 06:29:22;;;;;;;6.73;3.70;;;14.40;99.90;;;;;;5011485;28;20258;-79
2023/07/06 06:31:50;;;;;;;8.60;4.10;;;14.70;99.90;;;;;;5010044;28;20316;-80
2023/07/06 06:34:16;;;;;;;5.40;3.40;;;15.00;99.90;;;;;;5010984;28;20223;-80
2023/07/06 06:36:43;;;;;;;6.40;3.30;;;15.30;99.90;;;;;;5013531;28;20227;-81
2023/07/06 06:39:10;;;;;;;7.50;4.17;;;15.60;99.90;;;;;;5010852;28;20291;-81
2023/07/06 06:41:38;;;;;;;5.67;3.83;;;15.80;99.90;;;;;;5012143;28;20252;-80
2023/07/06 06:44:05;;;;;;;6.60;4.00;;;16.10;99.90;;;;;;5009343;28;20244;-80
2023/07/06 06:46:32;;;;;;;9.17;5.47;;;16.30;99.90;;;;;;5010615;28;20227;-81
2023/07/06 06:49:00;;;;;;;6.83;3.87;;;16.40;99.90;;;;;;5010224;28;20237;-81
2023/07/06 06:51:27;;;;;;;10.63;3.90;;;16.50;99.90;;;;;;5011039;28;20304;-81
2023/07/06 06:53:54;;;;;;;6.10;3.43;;;16.60;99.90;;;;;;5009757;28;20315;-80
2023/07/06 06:56:22;;;;;;;4.97;3.27;;;16.60;99.90;;;;;;5010823;28;20229;-81
2023/07/06 06:58:51;;;;;;;5.23;3.03;;;16.70;99.90;;;;;;5010442;28;20696;-81
2023/07/06 07:01:19;;;;;;;5.77;3.10;;;16.70;99.90;;;;;;5010649;28;20319;-82
2023/07/06 07:03:45;;;;;;;4.87;2.93;;;16.80;99.90;;;;;;5010177;28;20230;-81
2023/07/06 07:06:14;;;;;;;4.73;3.37;;;16.90;99.90;;;;;;5009953;28;20221;-80
2023/07/06 07:08:43;;;;;;;6.00;2.93;;;17.20;99.90;;;;;;5010107;28;20299;-81
2023/07/06 07:11:11;;;;;;;4.63;2.87;;;17.60;99.90;;;;;;5014808;28;20229;-81
2023/07/06 07:13:38;;;;;;;4.95;2.55;;;18.10;99.90;;;;;;5014316;28;20259;-80
2023/07/06 07:16:11;;;;;;;3.80;2.20;;;18.80;99.90;;;;;;5014030;28;20225;-81
2023/07/06 07:18:38;;;;;;;4.30;2.50;;;19.50;99.90;;;;;;5015636;28;20225;-81
2023/07/06 07:21:06;;;;;;;5.30;2.15;;;20.10;99.90;;;;;;5015095;28;20225;-80
2023/07/06 07:23:36;;;;;;;2.53;2.08;;;20.70;99.90;;;;;;5013131;28;20225;-80
2023/07/06 07:26:04;;;;;;;6.30;2.30;;;21.30;99.90;;;;;;5030925;28;20233;-80
2023/07/06 07:28:31;;;;;;;3.95;1.77;;;21.90;99.90;;;;;;5012252;28;20225;-80
2023/07/06 07:30:59;;;;;;;3.70;2.05;;;22.40;99.90;;;;;;5014447;28;20244;-81
2023/07/06 07:33:28;;;;;;;2.90;2.00;;;22.80;98.70;;;;;;5013397;28;20695;-82
2023/07/06 07:35:57;;;;;;;3.22;1.95;;;23.20;98.10;;;;;;5015629;28;20245;-81
2023/07/06 07:38:24;;;;;;;2.88;1.70;;;23.60;97.90;;;;;;5030126;28;20654;-81
2023/07/06 07:40:56;;;;;;;4.03;1.83;;;23.90;96.70;;;;;;5013914;28;20229;-82
2023/07/06 07:43:26;;;;;;;4.30;1.70;;;24.20;95.30;;;;;;5027870;28;20654;-82
2023/07/06 07:45:55;;;;;;;3.50;1.98;;;24.50;95.80;;;;;;5015326;28;20962;-81
2023/07/06 07:48:23;;;;;;;4.78;2.72;;;24.70;94.60;;;;;;5014415;28;20229;-81
2023/07/06 07:50:52;;;;;;;4.47;2.15;;;24.90;94.70;;;;;;5012789;28;20280;-82
2023/07/06 07:53:19;;;;;;;4.47;1.90;;;25.20;93.60;;;;;;5011871;28;20710;-81
2023/07/06 07:55:46;;;;;;;3.33;1.73;;;25.40;92.90;;;;;;5028987;28;20229;-82
2023/07/06 07:58:13;;;;;;;4.35;1.92;;;25.60;92.90;;;;;;5012589;28;20229;-82
2023/07/06 08:00:39;;;;;;;2.58;1.77;;;25.80;92.30;;;;;;5029501;28;20225;-82
2023/07/06 08:03:07;;;;;;;2.83;1.50;;;26.00;91.40;;;;;;5013320;28;20228;-81
2023/07/06 08:05:38;;;;;;;3.50;1.80;;;26.20;91.10;;;;;;5014347;28;20812;-81
2023/07/06 08:08:06;;;;;;;4.30;1.70;;;26.40;89.30;;;;;;5012621;28;20221;-80
2023/07/06 08:10:36;;;;;;;3.67;1.80;;;26.50;90.00;;;;;;5013434;28;20639;-79
2023/07/06 08:13:04;;;;;;;4.07;1.80;;;26.70;89.70;;;;;;5012714;28;20248;-80
2023/07/06 08:15:30;;;;;;;3.17;1.80;;;26.70;88.40;;;;;;5029193;28;20225;-80
2023/07/06 08:18:00;;;;;;;3.28;1.58;;;26.80;87.50;;;;;;5013835;28;20255;-80
2023/07/06 08:20:28;;;;;;;1.70;1.15;;;26.90;87.30;;;;;;5012875;28;20222;-79
2023/07/06 08:22:57;;;;;;;3.28;1.17;;;27.00;85.10;;;;;;5013765;28;20221;-80
2023/07/06 08:25:27;;;;;;;5.15;1.45;;;27.00;82.40;;;;;;5028971;28;20691;-80
2023/07/06 08:27:54;;;;;;;2.22;1.30;;;27.00;81.80;;;;;;5012890;28;20284;-80
2023/07/06 08:30:22;;;;;;;3.40;1.38;;;27.10;82.40;;;;;;5013606;28;20252;-80
2023/07/06 08:32:49;;;;;;;2.38;1.60;;;27.20;81.20;;;;;;5013729;28;20317;-80
2023/07/06 08:35:17;;;;;;;3.35;1.58;;;27.30;80.30;;;;;;5029093;28;20228;-80
2023/07/06 08:37:44;;;;;;;2.70;1.52;;;27.40;80.90;;;;;;5014227;28;20225;-79
2023/07/06 08:40:14;;;;;;;2.00;1.23;;;27.50;77.60;;;;;;5029280;28;20229;-80
2023/07/06 08:42:44;;;;;;;2.63;1.50;;;27.60;76.60;;;;;;5012526;28;20328;-80
2023/07/06 08:45:16;;;;;;;3.67;2.28;;;27.60;75.80;;;;;;5027843;28;20225;-79
2023/07/06 08:47:44;;;;;;;1.85;1.45;;;27.70;74.80;;;;;;5013107;28;20260;-80
2023/07/06 08:50:12;;;;;;;3.08;1.67;;;27.80;76.30;;;;;;5027277;28;20759;-79
2023/07/06 08:52:39;;;;;;;2.10;1.40;;;27.80;75.30;;;;;;5011324;28;20257;-80
2023/07/06 08:55:12;;;;;;;3.83;1.48;;;27.80;73.00;;;;;;5013342;28;20229;-80
2023/07/06 08:57:40;;;;;;;1.77;1.27;;;27.60;73.60;;;;;;5011604;28;20280;-79
2023/07/06 09:00:21;;;;;;;2.13;1.48;;;27.50;74.80;;;;;;5011078;28;20233;-82
2023/07/06 09:02:49;;;;;;;1.80;1.30;;;27.30;71.30;;;;;;5010445;28;20241;-81
2023/07/06 09:05:16;;;;;;;3.35;1.35;;;27.20;72.50;;;;;;5011749;28;20280;-80
2023/07/06 09:07:45;;;;;;;2.28;1.83;;;27.00;72.90;;;;;;5028782;28;20260;-80
2023/07/06 09:10:13;;;;;;;2.47;1.40;;;26.90;72.50;;;;;;5011802;28;20296;-79
2023/07/06 09:12:40;;;;;;;2.05;1.35;;;26.80;73.60;;;;;;5013519;28;20229;-80
2023/07/06 09:15:08;;;;;;;2.88;1.42;;;26.90;76.00;;;;;;5012787;28;20600;-81
2023/07/06 09:17:45;;;;;;;2.40;1.30;;;27.10;75.10;;;;;;5012531;28;20769;-81
2023/07/06 09:20:14;;;;;;;2.83;1.17;;;27.20;72.20;;;;;;5026089;28;20229;-81
2023/07/06 09:22:41;;;;;;;1.88;1.52;;;27.50;72.50;;;;;;5026698;28;20225;-81
2023/07/06 09:25:15;;;;;;;2.42;1.45;;;27.60;69.60;;;;;;5026218;28;20225;-81
2023/07/06 09:27:46;;;;;;;2.53;1.40;;;27.70;69.40;;;;;;5011078;28;20225;-82
2023/07/06 09:30:29;;;;;;;2.42;1.30;;;27.50;69.00;;;;;;5009734;28;20229;-82
2023/07/06 09:33:04;;;;;;;3.28;1.30;;;27.20;68.60;;;;;;5024852;28;20226;-81
2023/07/06 09:35:31;;;;;;;2.08;1.23;;;27.00;68.90;;;;;;5008917;28;20225;-82
2023/07/06 09:37:58;;;;;;;3.38;1.30;;;26.80;69.60;;;;;;5008808;28;20229;-82
2023/07/06 09:40:29;;;;;;;2.17;1.50;;;26.80;68.00;;;;;;5025441;28;20321;-82
2023/07/06 09:42:56;;;;;;;2.17;1.30;;;27.00;67.90;;;;;;5024739;28;20221;-81
2023/07/06 09:45:25;;;;;;;2.67;1.10;;;27.20;69.20;;;;;;5027884;28;20245;-81
2023/07/06 09:47:56;;;;;;;2.10;1.10;;;27.50;68.60;;;;;;5027263;28;20259;-82
2023/07/06 09:50:32;;;;;;;1.42;1.23;;;27.80;68.40;;;;;;5026842;28;20243;-82
2023/07/06 09:53:00;;;;;;;1.65;1.10;;;28.10;63.30;;;;;;5026160;28;20239;-81
2023/07/06 09:55:30;;;;;;;3.75;1.20;;;28.40;66.50;;;;;;5009997;28;20221;-81
2023/07/06 09:57:57;;;;;;;1.45;1.33;;;28.60;65.50;;;;;;5009937;28;20221;-81
2023/07/06 10:00:32;;;;;;;2.58;1.45;;;28.90;64.90;;;;;;5026873;28;20236;-81
2023/07/06 10:03:08;;;;;;;4.03;1.23;;;29.10;63.10;;;;;;5025098;28;20713;-82
2023/07/06 10:05:49;;;;;;;1.98;1.20;;;29.40;63.50;;;;;;5011013;28;20229;-80
2023/07/06 10:08:21;;;;;;;1.90;1.10;;;29.50;59.80;;;;;;5011743;28;20225;-82
2023/07/06 10:11:01;;;;;;;1.80;1.15;;;29.60;61.10;;;;;;5012287;28;20231;-82
2023/07/06 10:13:38;;;;;;;1.20;1.00;;;29.60;60.40;;;;;;5009233;28;20601;-81
2023/07/06 10:16:16;;;;;;;2.03;1.20;;;29.70;58.80;;;;;;5007886;28;20279;-81
2023/07/06 10:18:50;;;;;;;2.35;1.40;;;29.70;57.80;;;;;;5008846;28;20741;-81
2023/07/06 10:21:24;;;;;;;2.90;1.40;;;29.80;59.30;;;;;;5010111;28;20235;-81
2023/07/06 10:24:01;;;;;;;3.15;1.25;;;29.80;59.20;;;;;;5011236;28;20293;-82
2023/07/06 10:26:32;;;;;;;1.60;1.17;;;29.70;58.00;;;;;;5014507;28;20938;-82
2023/07/06 10:29:02;;;;;;;2.15;1.40;;;29.80;57.10;;;;;;5011431;28;20218;-82
2023/07/06 10:31:34;;;;;;;2.67;1.40;;;29.80;57.10;;;;;;5006605;28;20229;-81
2023/07/06 10:34:08;;;;;;;1.98;1.27;;;29.80;56.90;;;;;;5005973;28;20229;-82
2023/07/06 10:36:36;;;;;;;3.83;1.15;;;30.00;57.30;;;;;;5007482;28;20221;-82
2023/07/06 10:39:13;;;;;;;3.35;1.60;;;30.10;56.50;;;;;;5008301;28;20221;-82
2023/07/06 10:41:49;;;;;;;3.13;1.23;;;30.10;55.90;;;;;;5009231;28;20221;-82
2023/07/06 10:44:44;;;;;;;2.33;1.20;;;30.10;55.70;;;;;;5007351;28;20225;-82
2023/07/06 10:47:35;;;;;;;2.60;1.05;;;29.80;55.50;;;;;;4996931;28;20856;-82
2023/07/06 10:50:30;;;;;;;2.08;1.10;;;29.50;55.90;;;;;;5011373;28;20231;-82
2023/07/06 10:53:04;;;;;;;2.20;1.17;;;29.20;55.60;;;;;;5010826;28;20232;-81
2023/07/06 10:55:35;;;;;;;2.13;1.40;;;28.80;56.90;;;;;;5011728;28;20224;-82
2023/07/06 10:58:31;;;;;;;3.22;1.30;;;28.50;56.70;;;;;;5010721;28;20221;-82
2023/07/06 11:00:59;;;;;;;3.47;1.20;;;28.10;57.30;;;;;;4979098;28;20606;-82
2023/07/06 11:03:29;;;;;;;2.47;1.27;;;27.90;57.80;;;;;;5013633;28;20228;-81
2023/07/06 11:06:05;;;;;;;4.18;1.20;;;27.70;58.00;;;;;;5014511;28;20229;-82
2023/07/06 11:09:05;;;;;;;2.25;1.27;;;27.40;57.50;;;;;;5012619;28;20227;-82
2023/07/06 11:11:35;;;;;;;4.38;1.30;;;27.10;57.90;;;;;;5014999;28;20232;-81
2023/07/06 11:14:38;;;;;;;2.08;1.30;;;26.90;58.00;;;;;;5015518;28;20259;-82
2023/07/06 11:17:16;;;;;;;4.90;1.45;;;26.80;59.00;;;;;;4983684;28;20319;-81
2023/07/06 11:19:49;;;;;;;3.53;1.30;;;26.90;59.10;;;;;;5015038;28;20237;-82
2023/07/06 11:22:22;;;;;;;1.80;1.30;;;27.10;58.60;;;;;;5014101;28;20621;-81
2023/07/06 11:24:53;;;;;;;2.17;1.23;;;27.20;59.20;;;;;;5011782;28;20221;-81
2023/07/06 11:27:24;;;;;;;2.63;1.50;;;27.40;59.00;;;;;;5007291;28;20264;-83
2023/07/06 11:29:54;;;;;;;3.45;1.60;;;27.60;58.70;;;;;;5009514;28;20257;-82
2023/07/06 11:32:31;;;;;;;2.67;1.63;;;27.80;58.90;;;;;;5005880;28;20222;-82
2023/07/06 11:35:19;;;;;;;1.90;1.30;;;27.90;57.90;;;;;;5008341;28;20221;-82
2023/07/06 11:37:58;;;;;;;1.75;1.17;;;28.10;58.70;;;;;;5009137;28;20587;-82
2023/07/06 11:40:38;;;;;;;3.10;1.90;;;28.40;58.60;;;;;;5002084;28;20305;-83
2023/07/06 11:43:19;;;;;;;2.38;1.40;;;28.50;56.20;;;;;;5007496;28;20256;-83
2023/07/06 11:45:53;;;;;;;2.10;1.42;;;28.60;56.80;;;;;;5021108;28;20217;-83
2023/07/06 11:48:28;;;;;;;2.95;1.50;;;28.60;57.20;;;;;;5004374;28;20265;-83
2023/07/06 11:50:55;;;;;;;2.30;1.30;;;28.50;57.00;;;;;;5006021;28;20221;-82
2023/07/06 11:53:54;;;;;;;1.60;1.25;;;28.40;57.60;;;;;;5021513;28;20237;-82
2023/07/06 11:56:35;;;;;;;1.60;1.20;;;28.20;58.00;;;;;;5002303;28;20229;-82
2023/07/06 11:59:04;;;;;;;2.75;1.48;;;28.10;58.00;;;;;;5006080;28;20221;-83
2023/07/06 12:01:40;;;;;;;2.35;1.50;;;27.90;57.70;;;;;;5008587;28;20245;-83
2023/07/06 12:04:13;;;;;;;2.40;1.25;;;27.70;58.00;;;;;;5022559;28;20213;-83
2023/07/06 12:06:40;;;;;;;1.92;1.38;;;27.50;57.80;;;;;;5007146;28;20277;-83
2023/07/06 12:09:07;;;;;;;1.85;1.13;;;27.30;57.50;;;;;;5007843;28;20340;-82
2023/07/06 12:11:38;;;;;;;2.70;1.23;;;27.00;57.50;;;;;;5007390;28;22184;-82
2023/07/06 12:14:09;;;;;;;1.30;1.20;;;26.70;57.60;;;;;;5009503;28;20501;-82
2023/07/06 12:16:40;;;;;;;1.73;1.10;;;26.40;57.70;;;;;;5009654;28;20228;-82
2023/07/06 12:19:11;;;;;;;2.15;1.00;;;26.10;57.40;;;;;;5006643;28;20248;-82
2023/07/06 12:21:41;;;;;;;2.13;1.00;;;25.90;58.10;;;;;;5023340;28;20227;-82
2023/07/06 12:24:12;;;;;;;1.55;1.00;;;25.60;59.20;;;;;;5007401;28;20209;-83
2023/07/06 12:26:45;;;;;;;1.73;1.30;;;25.40;59.20;;;;;;5010498;28;20260;-82
2023/07/06 12:29:15;;;;;;;1.83;1.27;;;25.20;59.90;;;;;;5025494;28;20221;-82
2023/07/06 12:31:42;;;;;;;2.17;1.27;;;25.10;60.50;;;;;;5008606;28;20276;-82
2023/07/06 12:34:09;;;;;;;2.88;1.30;;;24.80;60.40;;;;;;5008340;28;20256;-82
2023/07/06 12:36:41;;;;;;;2.63;1.48;;;24.60;61.10;;;;;;5026787;28;20225;-82
2023/07/06 12:39:09;;;;;;;3.40;1.52;;;24.40;61.50;;;;;;5008714;28;20230;-82
2023/07/06 12:41:37;;;;;;;2.42;1.50;;;24.30;62.70;;;;;;5005386;28;20225;-82
2023/07/06 12:44:07;;;;;;;2.95;1.50;;;24.30;63.80;;;;;;5010133;28;20225;-82
2023/07/06 12:46:35;;;;;;;2.83;1.40;;;24.20;64.80;;;;;;5008552;28;20244;-82
2023/07/06 12:49:06;;;;;;;3.40;1.20;;;24.20;65.00;;;;;;5026164;28;20604;-82
2023/07/06 12:51:38;;;;;;;2.22;1.30;;;24.20;64.00;;;;;;5011070;28;20275;-82
2023/07/06 12:54:05;;;;;;;2.65;1.42;;;24.20;64.80;;;;;;5023718;28;20260;-83
2023/07/06 12:56:32;;;;;;;2.47;1.40;;;24.30;66.30;;;;;;5018535;28;20229;-82
2023/07/06 12:59:01;;;;;;;2.05;1.55;;;24.30;66.60;;;;;;5007817;28;21087;-82
2023/07/06 13:01:33;;;;;;;2.97;1.30;;;24.40;65.20;;;;;;5006875;28;20309;-83